createdAt,value
2023-04-21T00:00:47.167Z,8.30
2023-04-21T00:03:44.549Z,8.30
2023-04-21T00:06:33.177Z,8.30
2023-04-21T00:09:28.258Z,8.30
2023-04-21T00:12:22.297Z,8.30
2023-04-21T00:15:09.942Z,8.30
2023-04-21T00:18:06.425Z,8.30
2023-04-21T00:20:53.578Z,8.30
2023-04-21T00:23:47.329Z,8.40
2023-04-21T00:26:34.490Z,8.30
2023-04-21T00:29:28.398Z,8.30
2023-04-21T00:32:16.255Z,8.30
2023-04-21T00:35:10.412Z,8.30
2023-04-21T00:37:57.521Z,8.30
2023-04-21T00:40:51.302Z,8.30
2023-04-21T00:43:58.461Z,8.30
2023-04-21T00:46:52.420Z,8.30
2023-04-21T00:49:46.345Z,8.30
2023-04-21T00:52:41.363Z,8.20
2023-04-21T00:55:35.369Z,8.20
2023-04-21T00:58:22.547Z,8.20
2023-04-21T01:01:16.375Z,8.30
2023-04-21T01:04:05.199Z,8.20
2023-04-21T01:06:59.350Z,8.20
2023-04-21T01:09:46.412Z,8.20
2023-04-21T01:12:40.493Z,8.20
2023-04-21T01:15:30.922Z,8.20
2023-04-21T01:18:25.438Z,8.20
2023-04-21T01:21:13.185Z,8.20
2023-04-21T01:24:06.408Z,8.10
2023-04-21T01:27:00.398Z,8.20
2023-04-21T01:29:50.736Z,8.10
2023-04-21T01:32:44.390Z,8.10
2023-04-21T01:35:31.555Z,8.10
2023-04-21T01:38:25.392Z,8.10
2023-04-21T01:41:12.603Z,8.10
2023-04-21T01:44:07.451Z,8.20
2023-04-21T01:46:54.523Z,8.20
2023-04-21T01:49:48.451Z,8.20
2023-04-21T01:52:35.558Z,8.20
2023-04-21T01:55:29.454Z,8.10
2023-04-21T01:58:16.507Z,8.10
2023-04-21T02:01:10.418Z,8.10
2023-04-21T02:03:57.689Z,8.10
2023-04-21T02:06:51.439Z,8.10
2023-04-21T02:09:38.555Z,8.10
2023-04-21T02:12:32.489Z,8.20
2023-04-21T02:15:26.471Z,8.20
2023-04-21T02:18:21.531Z,8.20
2023-04-21T02:21:15.482Z,8.20
2023-04-21T02:24:02.752Z,8.20
2023-04-21T02:26:56.567Z,8.20
2023-04-21T02:29:43.742Z,8.20
2023-04-21T02:32:38.678Z,8.20
2023-04-21T02:35:25.992Z,8.20
2023-04-21T02:38:19.594Z,8.20
2023-04-21T02:41:06.741Z,8.20
2023-04-21T02:44:00.506Z,8.20
2023-04-21T02:46:47.860Z,8.20
2023-04-21T02:49:41.577Z,8.20
2023-04-21T02:52:35.533Z,8.20
2023-04-21T02:55:22.989Z,8.20
2023-04-21T02:58:16.557Z,8.20
2023-04-21T03:01:04.837Z,8.20
2023-04-21T03:03:58.804Z,8.20
2023-04-21T03:06:45.983Z,8.20
2023-04-21T03:09:39.546Z,8.20
2023-04-21T03:12:26.614Z,8.20
2023-04-21T03:15:20.581Z,8.20
2023-04-21T03:18:07.747Z,8.20
2023-04-21T03:21:06.634Z,8.20
2023-04-21T03:23:53.703Z,8.10
2023-04-21T03:26:47.581Z,8.10
2023-04-21T03:29:36.193Z,8.10
2023-04-21T03:32:29.593Z,8.10
2023-04-21T03:35:16.947Z,8.10
2023-04-21T03:38:10.616Z,8.10
2023-04-21T03:41:04.706Z,8.10
2023-04-21T03:43:54.687Z,8.10
2023-04-21T03:46:48.631Z,8.10
2023-04-21T03:49:42.363Z,8.10
2023-04-21T03:52:35.677Z,8.10
2023-04-21T03:55:22.766Z,8.10
2023-04-21T03:58:16.635Z,8.10
2023-04-21T04:01:06.644Z,8.10
2023-04-21T04:04:00.897Z,8.10
2023-04-21T04:06:48.402Z,8.10
2023-04-21T04:09:41.641Z,8.10
2023-04-21T04:12:28.751Z,8.10
2023-04-21T04:15:22.867Z,8.10
2023-04-21T04:18:16.712Z,8.10
2023-04-21T04:21:10.258Z,8.10
2023-04-21T04:24:03.691Z,8.10
2023-04-21T04:26:51.249Z,8.10
2023-04-21T04:29:44.653Z,8.10
2023-04-21T04:32:33.585Z,8.20
2023-04-21T04:35:27.719Z,8.20
2023-04-21T04:38:15.779Z,8.20
2023-04-21T04:41:09.698Z,8.20
2023-04-21T04:44:00.888Z,8.20
2023-04-21T04:46:55.886Z,8.20
2023-04-21T04:49:43.048Z,8.20
2023-04-21T04:52:36.711Z,8.30
2023-04-21T04:55:24.000Z,8.20
2023-04-21T04:58:17.745Z,8.30
2023-04-21T05:01:15.944Z,8.30
2023-04-21T05:04:09.900Z,8.30
2023-04-21T05:06:57.120Z,8.30
2023-04-21T05:09:50.763Z,8.30
2023-04-21T05:12:44.789Z,8.30
2023-04-21T05:15:32.021Z,8.30
2023-04-21T05:18:25.749Z,8.30
2023-04-21T05:21:12.789Z,8.30
2023-04-21T05:24:06.770Z,8.30
2023-04-21T05:27:00.824Z,8.40
2023-04-21T05:29:54.752Z,8.40
2023-04-21T05:32:41.882Z,8.40
2023-04-21T05:35:38.776Z,8.40
2023-04-21T05:38:27.332Z,8.40
2023-04-21T05:41:20.782Z,8.50
2023-04-21T05:44:07.876Z,8.50
2023-04-21T05:47:01.816Z,8.60
2023-04-21T05:49:53.603Z,8.60
2023-04-21T05:52:47.814Z,8.60
2023-04-21T05:55:35.736Z,8.70
2023-04-21T05:58:28.851Z,8.70
2023-04-21T06:01:16.094Z,8.70
2023-04-21T06:04:10.086Z,8.80
2023-04-21T06:07:03.875Z,8.80
2023-04-21T06:09:51.527Z,8.90
2023-04-21T06:12:44.838Z,9.00
2023-04-21T06:15:32.037Z,9.00
2023-04-21T06:18:25.867Z,9.10
2023-04-21T06:21:13.176Z,9.10
2023-04-21T06:24:06.862Z,9.00
2023-04-21T06:26:53.974Z,9.10
2023-04-21T06:29:48.884Z,9.10
2023-04-21T06:32:42.930Z,9.20
2023-04-21T06:35:37.020Z,9.30
2023-04-21T06:38:30.911Z,9.40
2023-04-21T06:41:18.477Z,9.40
2023-04-21T06:44:11.893Z,9.50
2023-04-21T06:47:05.950Z,9.50
2023-04-21T06:49:59.911Z,9.60
2023-04-21T06:52:47.037Z,9.60
2023-04-21T06:55:41.004Z,9.70
2023-04-21T06:58:35.043Z,9.80
2023-04-21T07:01:31.057Z,9.90
2023-04-21T07:04:25.992Z,10.00
2023-04-21T07:07:22.971Z,10.00
2023-04-21T07:10:17.040Z,10.10
2023-04-21T07:13:04.112Z,10.10
2023-04-21T07:15:57.989Z,10.30
2023-04-21T07:18:51.993Z,10.40
2023-04-21T07:21:39.172Z,10.50
2023-04-21T07:24:32.996Z,10.70
2023-04-21T07:27:26.978Z,10.70
2023-04-21T07:30:14.401Z,10.80
2023-04-21T07:33:08.034Z,10.90
2023-04-21T07:36:02.016Z,11.00
2023-04-21T07:38:49.177Z,11.10
2023-04-21T07:41:43.010Z,11.10
2023-04-21T07:44:30.429Z,11.20
2023-04-21T07:47:24.107Z,11.30
2023-04-21T07:50:11.419Z,11.30
2023-04-21T07:53:05.120Z,11.30
2023-04-21T07:55:52.308Z,11.40
2023-04-21T07:58:46.105Z,11.50
2023-04-21T08:01:35.834Z,11.50
2023-04-21T08:04:29.426Z,11.60
2023-04-21T08:07:23.139Z,11.70
2023-04-21T08:10:10.694Z,11.80
2023-04-21T08:13:04.016Z,12.00
2023-04-21T08:15:55.299Z,12.10
2023-04-21T08:18:49.069Z,12.20
2023-04-21T08:21:36.973Z,12.20
2023-04-21T08:24:31.087Z,12.20
2023-04-21T08:27:18.349Z,12.20
2023-04-21T08:30:13.134Z,12.30
2023-04-21T08:33:07.152Z,12.30
2023-04-21T08:36:03.794Z,12.50
2023-04-21T08:39:02.112Z,12.70
2023-04-21T08:41:50.984Z,12.80
2023-04-21T08:44:45.127Z,12.90
2023-04-21T08:47:33.374Z,12.90
2023-04-21T08:50:28.130Z,12.90
2023-04-21T08:53:16.169Z,12.90
2023-04-21T08:56:11.729Z,13.10
2023-04-21T08:58:59.125Z,13.30
2023-04-21T09:02:16.467Z,13.50
2023-04-21T09:05:04.160Z,13.60
2023-04-21T09:07:58.181Z,13.80
2023-04-21T09:10:53.991Z,13.90
2023-04-21T09:13:50.200Z,13.90
2023-04-21T09:16:37.370Z,14.00
2023-04-21T09:19:37.168Z,14.00
2023-04-21T09:22:36.156Z,14.30
2023-04-21T09:25:23.490Z,14.50
2023-04-21T09:28:21.183Z,14.60
2023-04-21T09:31:26.270Z,14.60
2023-04-21T09:34:23.004Z,14.40
2023-04-21T09:37:19.171Z,14.30
2023-04-21T09:40:06.865Z,14.30
2023-04-21T09:43:00.169Z,14.30
2023-04-21T09:45:48.406Z,14.40
2023-04-21T09:48:43.229Z,14.40
2023-04-21T09:51:55.539Z,14.40
2023-04-21T09:54:50.254Z,14.50
2023-04-21T09:57:46.192Z,14.50
2023-04-21T10:00:39.325Z,14.50
2023-04-21T10:03:35.447Z,14.50
2023-04-21T10:06:23.339Z,14.60
2023-04-21T10:09:20.312Z,14.80
2023-04-21T10:12:17.291Z,14.90
2023-04-21T10:15:38.278Z,15.00
2023-04-21T10:18:25.391Z,15.00
2023-04-21T10:21:29.245Z,15.00
2023-04-21T10:24:23.217Z,15.00
2023-04-21T10:27:18.232Z,15.00
2023-04-21T10:30:33.266Z,14.90
2023-04-21T10:33:30.237Z,14.80
2023-04-21T10:36:24.710Z,14.80
2023-04-21T10:39:34.307Z,14.80
2023-04-21T10:42:33.279Z,14.80
2023-04-21T10:45:20.502Z,14.90
2023-04-21T10:48:20.338Z,15.00
2023-04-21T10:51:07.411Z,15.00
2023-04-21T10:54:03.260Z,14.90
2023-04-21T10:56:55.943Z,14.90
2023-04-21T10:59:50.299Z,15.10
2023-04-21T11:02:45.135Z,15.20
2023-04-21T11:05:42.371Z,15.20
2023-04-21T11:08:30.394Z,15.40
2023-04-21T11:11:30.316Z,15.60
2023-04-21T11:14:18.102Z,15.70
2023-04-21T11:17:17.395Z,15.70
2023-04-21T11:20:06.630Z,15.70
2023-04-21T11:23:03.322Z,15.70
2023-04-21T11:25:50.890Z,15.70
2023-04-21T11:28:48.413Z,15.70
2023-04-21T11:31:41.239Z,15.70
2023-04-21T11:34:35.360Z,15.70
2023-04-21T11:37:27.106Z,15.60
2023-04-21T11:40:21.409Z,15.60
2023-04-21T11:43:08.902Z,15.80
2023-04-21T11:46:02.393Z,15.90
2023-04-21T11:48:59.600Z,16.10
2023-04-21T11:51:53.446Z,16.20
2023-04-21T11:54:47.446Z,16.30
2023-04-21T11:57:34.621Z,16.30
2023-04-21T12:00:28.402Z,16.40
2023-04-21T12:03:22.509Z,16.50
2023-04-21T12:06:16.591Z,16.70
2023-04-21T12:09:10.439Z,16.80
2023-04-21T12:11:59.901Z,17.10
2023-04-21T12:14:53.416Z,17.40
2023-04-21T12:18:07.489Z,17.60
2023-04-21T12:20:54.966Z,17.60
2023-04-21T12:23:48.427Z,17.80
2023-04-21T12:26:35.703Z,17.70
2023-04-21T12:29:29.752Z,17.40
2023-04-21T12:32:23.466Z,17.10
2023-04-21T12:35:11.173Z,16.90
2023-04-21T12:38:04.500Z,16.80
2023-04-21T12:40:51.600Z,16.90
2023-04-21T12:43:45.486Z,17.20
2023-04-21T12:46:32.997Z,17.50
2023-04-21T12:49:27.537Z,17.80
2023-04-21T12:52:21.476Z,18.10
2023-04-21T12:55:15.524Z,18.40
2023-04-21T12:58:09.486Z,18.50
2023-04-21T13:00:56.640Z,18.50
2023-04-21T13:03:50.684Z,18.50
2023-04-21T13:06:45.507Z,18.40
2023-04-21T13:09:32.937Z,18.50
2023-04-21T13:12:26.516Z,18.50
2023-04-21T13:15:20.532Z,18.90
2023-04-21T13:18:07.670Z,19.00
2023-04-21T13:21:01.613Z,19.00
2023-04-21T13:23:55.521Z,19.00
2023-04-21T13:26:49.520Z,19.10
2023-04-21T13:29:43.557Z,19.20
2023-04-21T13:32:30.738Z,19.50
2023-04-21T13:35:24.563Z,19.90
2023-04-21T13:38:19.548Z,20.10
2023-04-21T13:41:07.340Z,20.00
2023-04-21T13:44:00.575Z,19.80
2023-04-21T13:46:54.650Z,19.70
2023-04-21T13:49:48.599Z,19.50
2023-04-21T13:52:42.588Z,19.20
2023-04-21T13:55:36.606Z,18.60
2023-04-21T13:58:23.842Z,18.20
2023-04-21T14:01:19.917Z,18.10
2023-04-21T14:04:15.737Z,18.10
2023-04-21T14:07:03.537Z,18.30
2023-04-21T14:09:58.628Z,18.40
2023-04-21T14:12:45.802Z,18.60
2023-04-21T14:15:39.637Z,18.80
2023-04-21T14:18:26.811Z,18.90
2023-04-21T14:21:20.760Z,18.70
2023-04-21T14:24:08.141Z,18.50
2023-04-21T14:27:02.622Z,18.60
2023-04-21T14:30:03.033Z,18.60
2023-04-21T14:32:56.636Z,18.60
2023-04-21T14:35:50.628Z,18.50
2023-04-21T14:38:44.663Z,18.30
2023-04-21T14:41:38.661Z,18.10
2023-04-21T14:44:25.798Z,17.80
2023-04-21T14:47:19.717Z,17.60
2023-04-21T14:50:13.647Z,17.40
2023-04-21T14:53:07.710Z,17.20
2023-04-21T14:55:54.929Z,17.20
2023-04-21T14:58:48.680Z,17.20
2023-04-21T15:01:42.797Z,17.40
2023-04-21T15:04:30.562Z,17.70
2023-04-21T15:07:25.150Z,18.10
2023-04-21T15:10:12.809Z,18.50
2023-04-21T15:13:06.666Z,18.90
2023-04-21T15:15:53.889Z,19.10
2023-04-21T15:18:47.696Z,19.00
2023-04-21T15:21:41.666Z,18.80
2023-04-21T15:24:28.735Z,18.50
2023-04-21T15:27:22.691Z,18.40
2023-04-21T15:30:10.558Z,18.60
2023-04-21T15:33:03.759Z,18.80
2023-04-21T15:35:57.739Z,18.90
2023-04-21T15:38:51.724Z,18.90
2023-04-21T15:41:45.782Z,18.80
2023-04-21T15:44:34.110Z,18.70
2023-04-21T15:47:28.807Z,18.60
2023-04-21T15:50:16.051Z,18.60
2023-04-21T15:53:12.762Z,18.60
2023-04-21T15:55:59.937Z,18.70
2023-04-21T15:58:53.725Z,18.80
2023-04-21T16:01:40.964Z,18.80
2023-04-21T16:04:34.972Z,18.90
2023-04-21T16:07:28.837Z,18.80
2023-04-21T16:10:22.849Z,18.70
2023-04-21T16:13:10.246Z,18.60
2023-04-21T16:16:03.871Z,18.40
2023-04-21T16:18:51.109Z,18.20
2023-04-21T16:21:46.832Z,18.10
2023-04-21T16:24:34.283Z,18.10
2023-04-21T16:27:27.799Z,18.10
2023-04-21T16:30:15.083Z,18.00
2023-04-21T16:33:09.831Z,17.90
2023-04-21T16:35:57.757Z,17.70
2023-04-21T16:38:51.842Z,17.40
2023-04-21T16:41:38.937Z,17.20
2023-04-21T16:44:32.810Z,17.10
2023-04-21T16:47:19.984Z,17.00
2023-04-21T16:50:14.862Z,16.90
2023-04-21T16:53:08.831Z,16.80
2023-04-21T16:55:56.295Z,16.70
2023-04-21T16:58:49.856Z,16.70
2023-04-21T17:01:43.872Z,16.60
2023-04-21T17:04:38.125Z,16.60
2023-04-21T17:07:31.956Z,16.50
2023-04-21T17:10:19.284Z,16.40
2023-04-21T17:13:13.832Z,16.40
2023-04-21T17:16:07.994Z,16.40
2023-04-21T17:19:02.934Z,16.30
2023-04-21T17:21:50.186Z,16.30
2023-04-21T17:24:53.392Z,16.30
2023-04-21T17:27:41.804Z,16.30
2023-04-21T17:30:35.897Z,16.20
2023-04-21T17:33:23.037Z,16.10
2023-04-21T17:36:17.047Z,16.00
2023-04-21T17:39:11.073Z,15.90
2023-04-21T17:41:58.586Z,15.80
2023-04-21T17:44:51.964Z,15.80
2023-04-21T17:47:39.323Z,15.80
2023-04-21T17:50:33.956Z,15.80
2023-04-21T17:53:28.011Z,15.80
2023-04-21T17:56:15.162Z,15.80
2023-04-21T17:59:09.048Z,15.80
2023-04-21T18:01:57.913Z,15.80
2023-04-21T18:04:52.014Z,15.90
2023-04-21T18:07:40.937Z,15.90
2023-04-21T18:10:34.941Z,16.00
2023-04-21T18:13:21.988Z,16.00
2023-04-21T18:16:15.970Z,15.90
2023-04-21T18:19:10.035Z,15.80
2023-04-21T18:21:57.329Z,15.60
2023-04-21T18:24:51.975Z,15.40
2023-04-21T18:27:40.186Z,15.10
2023-04-21T18:30:34.040Z,14.70
2023-04-21T18:33:21.261Z,14.20
2023-04-21T18:36:14.995Z,13.60
2023-04-21T18:39:09.072Z,13.10
2023-04-21T18:41:56.580Z,12.70
2023-04-21T18:44:50.033Z,12.50
2023-04-21T18:47:46.090Z,12.20
2023-04-21T18:50:35.930Z,12.00
2023-04-21T18:53:31.074Z,11.90
2023-04-21T18:56:18.232Z,11.90
2023-04-21T18:59:29.132Z,11.90
2023-04-21T19:02:23.216Z,11.90
2023-04-21T19:05:17.037Z,11.90
2023-04-21T19:08:11.037Z,11.90
2023-04-21T19:11:05.083Z,11.80
2023-04-21T19:13:59.084Z,11.80
2023-04-21T19:16:54.050Z,11.70
2023-04-21T19:19:41.851Z,11.70
2023-04-21T19:22:38.156Z,11.70
2023-04-21T19:25:25.454Z,11.60
2023-04-21T19:28:19.156Z,11.60
2023-04-21T19:31:06.476Z,11.60
2023-04-21T19:34:00.162Z,11.50
2023-04-21T19:36:47.587Z,11.50
2023-04-21T19:39:41.165Z,11.50
2023-04-21T19:42:35.120Z,11.50
2023-04-21T19:45:29.123Z,11.40
2023-04-21T19:48:16.597Z,11.40
2023-04-21T19:51:10.195Z,11.40
2023-04-21T19:54:11.355Z,11.40
2023-04-21T19:56:59.478Z,11.40
2023-04-21T19:59:53.221Z,11.30
2023-04-21T20:02:40.648Z,11.30
2023-04-21T20:05:34.227Z,11.30
2023-04-21T20:08:29.197Z,11.30
2023-04-21T20:11:23.400Z,11.30
2023-04-21T20:14:17.159Z,11.20
2023-04-21T20:17:04.433Z,11.20
2023-04-21T20:19:59.219Z,11.20
2023-04-21T20:22:47.783Z,11.30
2023-04-21T20:25:50.183Z,11.30
2023-04-21T20:28:37.291Z,11.30
2023-04-21T20:31:32.280Z,11.30
2023-04-21T20:34:19.370Z,11.30
2023-04-21T20:37:14.207Z,11.40
2023-04-21T20:40:10.220Z,11.40
2023-04-21T20:43:04.264Z,11.40
2023-04-21T20:45:58.328Z,11.40
2023-04-21T20:48:45.722Z,11.40
2023-04-21T20:51:39.239Z,11.50
2023-04-21T20:54:26.656Z,11.60
2023-04-21T20:57:20.229Z,11.50
2023-04-21T21:00:09.654Z,11.50
2023-04-21T21:03:03.413Z,11.30
2023-04-21T21:05:50.915Z,11.20
2023-04-21T21:08:44.276Z,11.10
2023-04-21T21:11:31.577Z,11.00
2023-04-21T21:14:25.298Z,10.90
2023-04-21T21:17:16.137Z,10.90
2023-04-21T21:20:10.288Z,10.90
2023-04-21T21:22:57.370Z,10.90
2023-04-21T21:25:51.266Z,10.90
2023-04-21T21:28:45.251Z,10.90
2023-04-21T21:31:32.396Z,10.90
2023-04-21T21:34:26.309Z,10.90
2023-04-21T21:37:13.462Z,10.90
2023-04-21T21:40:07.396Z,10.90
2023-04-21T21:43:01.315Z,10.90
2023-04-21T21:45:48.537Z,10.90
2023-04-21T21:48:42.347Z,10.80
2023-04-21T21:51:29.510Z,10.80
2023-04-21T21:54:23.318Z,10.80
2023-04-21T21:57:17.345Z,10.70
2023-04-21T22:00:15.327Z,10.60
2023-04-21T22:03:10.543Z,10.60
2023-04-21T22:05:57.695Z,10.50
2023-04-21T22:08:52.332Z,10.50
2023-04-21T22:11:39.582Z,10.50
2023-04-21T22:14:33.342Z,10.50
2023-04-21T22:17:21.287Z,10.40
2023-04-21T22:20:15.370Z,10.30
2023-04-21T22:23:03.123Z,10.20
2023-04-21T22:25:57.464Z,10.20
2023-04-21T22:28:49.769Z,10.10
2023-04-21T22:31:44.467Z,10.00
2023-04-21T22:34:31.919Z,9.90
2023-04-21T22:37:25.419Z,9.80
2023-04-21T22:40:12.975Z,9.80
2023-04-21T22:43:07.357Z,9.70
2023-04-21T22:45:54.623Z,9.70
2023-04-21T22:48:48.441Z,9.60
2023-04-21T22:51:36.360Z,9.60
2023-04-21T22:54:30.469Z,9.50
2023-04-21T22:57:17.675Z,9.50
2023-04-21T23:00:16.432Z,9.50
2023-04-21T23:03:03.745Z,9.40
2023-04-21T23:05:57.429Z,9.40
2023-04-21T23:08:51.561Z,9.30
2023-04-21T23:11:38.724Z,9.30
2023-04-21T23:14:32.548Z,9.30
2023-04-21T23:17:26.536Z,9.20
2023-04-21T23:20:20.516Z,9.20
2023-04-21T23:23:07.704Z,9.10
2023-04-21T23:26:01.506Z,9.10
2023-04-21T23:28:55.465Z,9.10
2023-04-21T23:31:49.527Z,9.10
2023-04-21T23:34:37.103Z,9.00
2023-04-21T23:37:30.472Z,9.10
2023-04-21T23:40:24.470Z,9.00
2023-04-21T23:43:18.510Z,9.10
2023-04-21T23:46:12.707Z,9.10
2023-04-21T23:48:59.911Z,9.10
2023-04-21T23:51:53.588Z,9.10
2023-04-21T23:54:40.853Z,9.10
2023-04-21T23:57:34.527Z,9.00
